createdAt,value
2023-08-29T00:02:50.608Z,5.90
2023-08-29T00:05:39.610Z,6.60
2023-08-29T00:08:14.667Z,6.60
2023-08-29T00:11:00.448Z,6.00
2023-08-29T00:13:42.631Z,5.40
2023-08-29T00:16:18.127Z,5.40
2023-08-29T00:18:53.837Z,5.50
2023-08-29T00:21:36.767Z,5.90
2023-08-29T00:24:14.164Z,6.00
2023-08-29T00:26:56.649Z,5.80
2023-08-29T00:29:38.526Z,5.10
2023-08-29T00:32:20.606Z,5.10
2023-08-29T00:35:02.519Z,5.00
2023-08-29T00:37:44.543Z,5.30
2023-08-29T00:40:20.618Z,4.90
2023-08-29T00:43:04.087Z,5.40
2023-08-29T00:45:45.561Z,5.30
2023-08-29T00:48:34.522Z,5.50
2023-08-29T00:51:33.532Z,5.20
2023-08-29T00:54:17.089Z,5.90
2023-08-29T00:57:05.520Z,5.90
2023-08-29T00:59:40.926Z,5.40
2023-08-29T01:02:29.605Z,5.00
2023-08-29T01:05:05.376Z,5.60
2023-08-29T01:07:55.541Z,6.10
2023-08-29T01:10:55.351Z,5.00
2023-08-29T01:13:59.566Z,4.70
2023-08-29T01:16:39.831Z,6.50
2023-08-29T01:19:29.540Z,5.60
2023-08-29T01:22:31.065Z,5.80
2023-08-29T01:25:41.537Z,6.70
2023-08-29T01:28:17.229Z,6.50
2023-08-29T01:31:05.551Z,6.70
2023-08-29T01:33:40.993Z,7.00
2023-08-29T01:36:29.560Z,6.30
2023-08-29T01:39:11.531Z,6.70
2023-08-29T01:41:53.790Z,6.30
2023-08-29T01:44:35.533Z,6.30
2023-08-29T01:47:31.592Z,7.40
2023-08-29T01:50:27.541Z,7.30
2023-08-29T01:53:23.512Z,7.30
2023-08-29T01:56:21.537Z,7.50
2023-08-29T01:59:18.687Z,7.20
2023-08-29T02:02:14.504Z,7.30
2023-08-29T02:05:10.640Z,6.80
2023-08-29T02:08:06.743Z,7.40
2023-08-29T02:10:58.562Z,8.60
2023-08-29T02:13:33.735Z,8.00
2023-08-29T02:16:22.578Z,8.40
2023-08-29T02:19:01.590Z,8.40
2023-08-29T02:21:50.585Z,7.10
2023-08-29T02:24:25.650Z,7.80
2023-08-29T02:27:14.687Z,7.70
2023-08-29T02:29:49.649Z,7.70
2023-08-29T02:32:38.730Z,7.80
2023-08-29T02:35:14.594Z,8.60
2023-08-29T02:38:06.764Z,7.70
2023-08-29T02:40:49.514Z,8.10
2023-08-29T02:43:31.930Z,7.80
2023-08-29T02:46:20.583Z,8.00
2023-08-29T02:49:09.587Z,8.30
2023-08-29T02:52:05.507Z,7.60
2023-08-29T02:54:47.753Z,8.00
2023-08-29T02:57:36.544Z,7.70
2023-08-29T03:00:12.246Z,8.30
2023-08-29T03:03:01.583Z,8.40
2023-08-29T03:05:37.898Z,8.10
2023-08-29T03:08:26.524Z,8.40
2023-08-29T03:11:11.532Z,8.80
2023-08-29T03:13:53.612Z,7.20
2023-08-29T03:16:38.063Z,7.60
2023-08-29T03:19:23.633Z,7.60
2023-08-29T03:22:05.771Z,8.10
2023-08-29T03:24:48.714Z,9.10
2023-08-29T03:27:37.645Z,8.70
2023-08-29T03:30:13.819Z,8.10
2023-08-29T03:33:02.703Z,7.90
2023-08-29T03:35:38.724Z,8.70
2023-08-29T03:38:27.526Z,8.90
2023-08-29T03:41:06.402Z,8.30
2023-08-29T03:43:57.525Z,7.90
2023-08-29T03:46:32.682Z,8.10
2023-08-29T03:49:24.526Z,7.90
2023-08-29T03:51:59.722Z,7.40
2023-08-29T03:54:48.688Z,6.10
2023-08-29T03:57:23.720Z,8.00
2023-08-29T04:00:11.882Z,7.60
2023-08-29T04:02:53.600Z,4.90
2023-08-29T04:05:28.779Z,7.40
2023-08-29T04:08:07.215Z,7.30
2023-08-29T04:10:49.618Z,7.90
2023-08-29T04:13:27.025Z,7.60
2023-08-29T04:16:04.230Z,7.30
2023-08-29T04:18:46.603Z,7.60
2023-08-29T04:21:21.740Z,6.70
2023-08-29T04:23:56.823Z,7.50
2023-08-29T04:26:38.514Z,7.40
2023-08-29T04:29:13.710Z,8.30
2023-08-29T04:31:48.893Z,8.00
2023-08-29T04:34:31.606Z,7.80
2023-08-29T04:37:13.660Z,7.80
2023-08-29T04:39:48.748Z,8.10
2023-08-29T04:42:37.662Z,8.00
2023-08-29T04:45:13.013Z,7.30
2023-08-29T04:48:01.698Z,7.10
2023-08-29T04:50:57.535Z,7.00
2023-08-29T04:53:54.570Z,7.20
2023-08-29T04:56:50.662Z,7.20
2023-08-29T04:59:32.911Z,7.80
2023-08-29T05:02:21.567Z,6.70
2023-08-29T05:05:03.631Z,6.70
2023-08-29T05:07:45.664Z,8.10
2023-08-29T05:10:27.515Z,8.10
2023-08-29T05:13:10.277Z,7.10
2023-08-29T05:15:59.664Z,7.90
2023-08-29T05:18:35.769Z,8.10
2023-08-29T05:21:24.623Z,7.50
2023-08-29T05:23:59.658Z,6.90
2023-08-29T05:26:48.629Z,7.90
2023-08-29T05:29:23.767Z,7.10
2023-08-29T05:32:12.541Z,7.70
2023-08-29T05:34:47.859Z,6.60
2023-08-29T05:37:36.627Z,6.70
2023-08-29T05:40:12.607Z,7.60
2023-08-29T05:42:54.775Z,7.10
2023-08-29T05:45:36.572Z,7.10
2023-08-29T05:48:25.784Z,7.20
2023-08-29T05:51:21.532Z,6.50
2023-08-29T05:54:17.485Z,6.60
2023-08-29T05:57:13.613Z,6.40
2023-08-29T06:00:12.558Z,7.30
2023-08-29T06:03:01.764Z,6.50
2023-08-29T06:05:43.680Z,12.90
2023-08-29T06:08:25.984Z,7.20
2023-08-29T06:11:10.375Z,6.80
2023-08-29T06:13:54.606Z,6.30
2023-08-29T06:16:36.576Z,6.60
2023-08-29T06:19:18.689Z,6.10
2023-08-29T06:22:00.687Z,6.50
2023-08-29T06:24:42.698Z,6.30
2023-08-29T06:27:24.616Z,6.30
2023-08-29T06:30:06.550Z,6.30
2023-08-29T06:32:48.631Z,6.40
2023-08-29T06:35:23.922Z,6.30
2023-08-29T06:38:10.721Z,6.60
2023-08-29T06:40:46.597Z,6.70
2023-08-29T06:43:22.850Z,6.80
2023-08-29T06:46:04.683Z,6.70
2023-08-29T06:48:46.663Z,6.50
2023-08-29T06:51:28.636Z,6.10
2023-08-29T06:54:17.705Z,6.90
2023-08-29T06:57:01.513Z,6.80
2023-08-29T06:59:47.551Z,6.90
2023-08-29T07:02:30.610Z,6.70
2023-08-29T07:05:26.590Z,7.20
2023-08-29T07:08:23.634Z,6.60
2023-08-29T07:11:19.672Z,6.50
2023-08-29T07:14:15.496Z,7.10
2023-08-29T07:17:11.577Z,6.80
2023-08-29T07:20:07.649Z,6.70
2023-08-29T07:23:03.673Z,6.40
2023-08-29T07:25:59.602Z,6.90
2023-08-29T07:28:55.518Z,7.00
2023-08-29T07:31:38.787Z,7.20
2023-08-29T07:34:27.608Z,7.20
2023-08-29T07:37:03.065Z,8.30
2023-08-29T07:39:51.609Z,7.80
2023-08-29T07:42:27.034Z,7.00
2023-08-29T07:45:15.598Z,6.50
2023-08-29T07:48:05.062Z,7.10
2023-08-29T07:50:54.507Z,7.70
2023-08-29T07:53:29.699Z,7.80
2023-08-29T07:56:18.554Z,5.30
2023-08-29T07:58:53.691Z,7.00
2023-08-29T08:01:42.568Z,7.10
2023-08-29T08:04:17.705Z,7.80
2023-08-29T08:07:06.500Z,8.40
2023-08-29T08:09:42.649Z,8.90
2023-08-29T08:12:31.490Z,8.30
2023-08-29T08:15:07.604Z,7.00
2023-08-29T08:17:57.657Z,7.40
2023-08-29T08:20:33.712Z,6.50
2023-08-29T08:23:22.532Z,7.60
2023-08-29T08:25:57.670Z,7.20
2023-08-29T08:28:46.561Z,7.70
2023-08-29T08:31:21.714Z,7.10
2023-08-29T08:34:10.632Z,7.30
2023-08-29T08:36:46.789Z,7.80
2023-08-29T08:39:35.659Z,6.50
2023-08-29T08:42:12.700Z,6.80
2023-08-29T08:45:01.595Z,7.60
2023-08-29T08:47:57.674Z,7.30
2023-08-29T08:50:53.660Z,8.00
2023-08-29T08:53:44.660Z,11.40
2023-08-29T08:56:20.584Z,7.80
2023-08-29T08:59:09.579Z,7.10
2023-08-29T09:01:45.765Z,7.50
2023-08-29T09:04:34.600Z,7.30
2023-08-29T09:07:10.912Z,7.00
2023-08-29T09:10:32.796Z,8.70
2023-08-29T09:13:23.624Z,7.90
2023-08-29T09:16:06.764Z,8.00
2023-08-29T09:18:52.016Z,7.20
2023-08-29T09:21:36.530Z,7.90
2023-08-29T09:24:28.598Z,7.90
2023-08-29T09:27:08.546Z,8.50
2023-08-29T09:29:57.610Z,8.10
2023-08-29T09:32:32.867Z,10.30
2023-08-29T09:35:21.602Z,9.50
2023-08-29T09:37:56.953Z,9.00
2023-08-29T09:40:48.158Z,15.20
2023-08-29T09:43:45.629Z,10.50
2023-08-29T09:46:44.519Z,9.90
2023-08-29T09:50:01.639Z,8.70
2023-08-29T09:52:50.510Z,9.30
2023-08-29T09:55:27.687Z,7.80
2023-08-29T09:58:17.673Z,8.00
2023-08-29T10:00:53.745Z,8.80
2023-08-29T10:03:42.593Z,8.70
2023-08-29T10:06:20.700Z,8.50
2023-08-29T10:09:11.472Z,8.70
2023-08-29T10:11:55.045Z,9.20
2023-08-29T10:14:44.612Z,8.80
2023-08-29T10:17:30.306Z,8.00
2023-08-29T10:20:21.525Z,9.80
2023-08-29T10:26:00.667Z,10.40
2023-08-29T10:28:56.479Z,10.10
2023-08-29T10:31:52.520Z,10.30
2023-08-29T10:34:49.510Z,9.40
2023-08-29T10:37:45.509Z,8.80
2023-08-29T10:40:35.774Z,9.90
2023-08-29T10:43:36.514Z,8.70
2023-08-29T10:46:11.769Z,7.60
2023-08-29T10:49:00.631Z,9.20
2023-08-29T10:51:42.518Z,10.10
2023-08-29T10:54:24.557Z,10.50
2023-08-29T10:57:06.564Z,9.90
2023-08-29T10:59:48.595Z,9.40
2023-08-29T11:02:31.714Z,8.20
2023-08-29T11:05:13.747Z,8.70
2023-08-29T11:08:02.604Z,9.50
2023-08-29T11:10:58.560Z,10.00
2023-08-29T11:14:17.527Z,9.30
2023-08-29T11:17:28.923Z,9.60
2023-08-29T11:20:14.571Z,9.90
2023-08-29T11:22:56.665Z,9.80
2023-08-29T11:25:39.595Z,11.80
2023-08-29T11:28:21.696Z,10.80
2023-08-29T11:31:03.511Z,10.50
2023-08-29T11:33:47.732Z,11.70
2023-08-29T11:36:29.781Z,11.10
2023-08-29T11:39:11.730Z,10.90
2023-08-29T11:42:08.467Z,11.80
2023-08-29T11:47:58.816Z,11.90
2023-08-29T11:50:54.612Z,12.90
2023-08-29T11:53:56.605Z,13.30
2023-08-29T11:56:52.606Z,12.50
2023-08-29T11:59:49.552Z,13.30
2023-08-29T12:02:45.565Z,11.60
2023-08-29T12:05:45.751Z,12.20
2023-08-29T12:08:48.518Z,13.10
2023-08-29T12:11:56.606Z,13.00
2023-08-29T12:15:05.632Z,12.30
2023-08-29T12:18:02.625Z,14.00
2023-08-29T12:21:00.193Z,12.90
2023-08-29T12:23:56.485Z,14.60
2023-08-29T12:26:52.620Z,17.00
2023-08-29T12:29:34.934Z,18.90
2023-08-29T12:32:24.621Z,16.70
2023-08-29T12:35:00.362Z,15.40
2023-08-29T12:37:50.659Z,14.50
2023-08-29T12:40:25.818Z,16.40
2023-08-29T12:43:14.752Z,15.70
2023-08-29T12:45:59.286Z,14.50
2023-08-29T12:48:48.678Z,15.10
2023-08-29T12:51:44.483Z,16.20
2023-08-29T12:54:41.654Z,15.60
2023-08-29T12:57:37.574Z,16.00
2023-08-29T13:00:20.589Z,16.40
2023-08-29T13:03:09.524Z,16.40
2023-08-29T13:05:45.826Z,15.60
2023-08-29T13:08:34.502Z,13.70
2023-08-29T13:11:09.925Z,14.40
2023-08-29T13:13:58.614Z,14.00
2023-08-29T13:16:41.634Z,16.70
2023-08-29T13:19:24.621Z,17.20
2023-08-29T13:22:00.372Z,17.00
2023-08-29T13:24:45.479Z,16.80
2023-08-29T13:27:20.720Z,17.50
2023-08-29T13:29:55.824Z,17.00
2023-08-29T13:32:41.481Z,17.40
2023-08-29T13:35:18.689Z,16.10
2023-08-29T13:37:54.836Z,17.50
2023-08-29T13:40:36.531Z,15.80
2023-08-29T13:43:18.551Z,17.70
2023-08-29T13:45:53.920Z,16.40
2023-08-29T13:48:42.496Z,16.40
2023-08-29T13:51:38.570Z,18.30
2023-08-29T13:54:20.901Z,17.20
2023-08-29T13:57:09.478Z,19.10
2023-08-29T13:59:44.976Z,16.60
2023-08-29T14:02:33.631Z,17.70
2023-08-29T14:05:09.622Z,18.50
2023-08-29T14:07:58.595Z,18.40
2023-08-29T14:10:40.651Z,18.30
2023-08-29T14:13:23.221Z,17.30
2023-08-29T14:16:01.717Z,16.00
2023-08-29T14:18:43.582Z,19.80
2023-08-29T14:21:21.681Z,20.60
2023-08-29T14:23:56.828Z,16.30
2023-08-29T14:26:38.616Z,17.80
2023-08-29T14:29:13.857Z,18.50
2023-08-29T14:31:48.889Z,14.20
2023-08-29T14:34:51.579Z,20.20
2023-08-29T14:37:47.605Z,16.70
2023-08-29T14:40:43.638Z,18.90
2023-08-29T14:43:39.556Z,18.20
2023-08-29T14:46:21.821Z,17.90
2023-08-29T14:49:10.550Z,17.20
2023-08-29T14:52:06.582Z,19.20
2023-08-29T14:55:02.573Z,20.70
2023-08-29T14:57:58.597Z,19.50
2023-08-29T15:00:54.467Z,20.50
2023-08-29T15:03:50.628Z,18.50
2023-08-29T15:06:46.793Z,20.30
2023-08-29T15:09:35.576Z,20.70
2023-08-29T15:12:11.563Z,19.20
2023-08-29T15:15:00.509Z,20.50
2023-08-29T15:17:35.948Z,19.10
2023-08-29T15:20:25.483Z,18.10
2023-08-29T15:23:00.622Z,19.20
2023-08-29T15:25:50.627Z,18.70
2023-08-29T15:28:29.742Z,18.90
2023-08-29T15:31:19.488Z,17.00
2023-08-29T15:33:57.414Z,19.00
2023-08-29T15:36:52.329Z,18.50
2023-08-29T15:39:27.553Z,19.50
2023-08-29T15:42:16.500Z,18.60
2023-08-29T15:44:53.596Z,18.30
2023-08-29T15:47:42.488Z,17.90
2023-08-29T15:50:18.730Z,18.20
2023-08-29T15:53:09.675Z,19.00
2023-08-29T15:55:47.143Z,21.20
2023-08-29T15:58:35.584Z,20.20
2023-08-29T16:01:17.497Z,19.30
2023-08-29T16:04:00.528Z,20.20
2023-08-29T16:06:46.590Z,18.70
2023-08-29T16:09:31.525Z,19.80
2023-08-29T16:12:12.020Z,19.60
2023-08-29T16:15:03.500Z,21.90
2023-08-29T16:17:41.601Z,20.60
2023-08-29T16:20:31.482Z,19.50
2023-08-29T16:23:12.653Z,18.90
2023-08-29T16:26:01.473Z,19.40
2023-08-29T16:28:38.449Z,19.70
2023-08-29T16:31:28.703Z,18.60
2023-08-29T16:34:05.442Z,19.10
2023-08-29T16:36:57.656Z,20.10
2023-08-29T16:39:42.274Z,19.10
2023-08-29T16:42:25.600Z,19.60
2023-08-29T16:45:17.478Z,18.40
2023-08-29T16:47:52.750Z,18.40
2023-08-29T16:50:48.644Z,19.20
2023-08-29T16:53:44.469Z,19.30
2023-08-29T16:56:40.549Z,18.00
2023-08-29T16:59:36.462Z,19.90
2023-08-29T17:02:32.532Z,18.40
2023-08-29T17:05:28.466Z,17.50
2023-08-29T17:08:18.487Z,18.00
2023-08-29T17:13:42.483Z,19.10
2023-08-29T17:16:17.565Z,19.20
2023-08-29T17:19:06.478Z,18.30
2023-08-29T17:21:41.622Z,18.00
2023-08-29T17:24:32.189Z,17.80
2023-08-29T17:27:07.583Z,18.00
2023-08-29T17:29:56.601Z,18.80
2023-08-29T17:32:31.754Z,17.80
2023-08-29T17:35:20.476Z,17.90
2023-08-29T17:37:55.602Z,18.60
2023-08-29T17:40:44.501Z,17.00
2023-08-29T17:43:26.611Z,16.40
2023-08-29T17:46:10.570Z,17.00
2023-08-29T17:49:06.637Z,17.10
2023-08-29T17:52:02.503Z,17.00
2023-08-29T17:54:58.499Z,17.40
2023-08-29T17:57:55.499Z,18.20
2023-08-29T18:00:51.532Z,18.10
2023-08-29T18:03:47.696Z,17.80
2023-08-29T18:06:43.548Z,17.30
2023-08-29T18:09:39.581Z,16.90
2023-08-29T18:12:21.482Z,16.90
2023-08-29T18:15:04.091Z,18.20
2023-08-29T18:17:45.567Z,18.00
2023-08-29T18:20:27.595Z,18.60
2023-08-29T18:23:09.572Z,18.90
2023-08-29T18:25:51.672Z,16.60
2023-08-29T18:28:33.598Z,17.10
2023-08-29T18:31:16.739Z,16.40
2023-08-29T18:33:58.527Z,16.40
2023-08-29T18:36:33.975Z,17.00
2023-08-29T18:39:22.505Z,18.60
2023-08-29T18:41:57.867Z,17.30
2023-08-29T18:44:49.549Z,16.90
2023-08-29T18:47:24.786Z,17.20
2023-08-29T18:50:14.487Z,16.30
2023-08-29T18:53:10.490Z,18.40
2023-08-29T18:56:06.481Z,17.40
2023-08-29T18:59:02.501Z,16.70
2023-08-29T19:01:58.487Z,18.50
2023-08-29T19:04:54.480Z,17.00
2023-08-29T19:07:51.510Z,16.80
2023-08-29T19:10:47.484Z,17.40
2023-08-29T19:13:43.477Z,17.70
2023-08-29T19:16:32.556Z,16.50
2023-08-29T19:19:08.841Z,16.50
2023-08-29T19:21:59.609Z,15.90
2023-08-29T19:24:35.833Z,16.20
2023-08-29T19:27:27.143Z,16.80
2023-08-29T19:30:09.594Z,15.70
2023-08-29T19:32:59.445Z,16.30
2023-08-29T19:35:39.297Z,15.60
2023-08-29T19:38:28.514Z,19.60
2023-08-29T19:41:04.597Z,17.70
2023-08-29T19:43:53.573Z,16.50
2023-08-29T19:46:28.639Z,16.60
2023-08-29T19:49:24.491Z,16.10
2023-08-29T19:52:20.532Z,16.10
2023-08-29T19:55:16.464Z,10.50
2023-08-29T19:58:12.511Z,15.40
2023-08-29T20:01:08.503Z,13.90
2023-08-29T20:04:04.560Z,15.40
2023-08-29T20:06:46.787Z,15.80
2023-08-29T20:09:35.465Z,15.10
2023-08-29T20:12:10.809Z,16.10
2023-08-29T20:14:59.487Z,15.60
2023-08-29T20:17:41.528Z,15.50
2023-08-29T20:20:23.564Z,15.00
2023-08-29T20:23:05.532Z,14.80
2023-08-29T20:25:47.544Z,14.50
2023-08-29T20:28:29.465Z,15.80
2023-08-29T20:31:12.250Z,15.00
2023-08-29T20:33:54.486Z,15.30
2023-08-29T20:36:37.596Z,16.00
2023-08-29T20:39:26.487Z,15.40
2023-08-29T20:42:01.589Z,16.00
2023-08-29T20:44:51.473Z,16.40
2023-08-29T20:50:30.540Z,15.60
2023-08-29T20:53:26.544Z,14.30
2023-08-29T20:56:22.480Z,16.90
2023-08-29T20:59:18.616Z,14.80
2023-08-29T21:02:14.541Z,15.10
2023-08-29T21:05:11.485Z,15.20
2023-08-29T21:07:53.929Z,16.30
2023-08-29T21:10:43.620Z,15.40
2023-08-29T21:13:19.264Z,16.90
2023-08-29T21:16:08.558Z,16.00
2023-08-29T21:18:43.725Z,16.40
2023-08-29T21:21:35.478Z,16.90
2023-08-29T21:24:11.227Z,15.50
2023-08-29T21:27:00.812Z,17.70
2023-08-29T21:29:35.969Z,17.10
2023-08-29T21:32:27.503Z,17.80
2023-08-29T21:35:02.745Z,14.80
2023-08-29T21:37:47.360Z,17.70
2023-08-29T21:40:30.455Z,17.80
2023-08-29T21:43:19.604Z,16.50
2023-08-29T21:46:13.562Z,15.10
2023-08-29T21:49:02.508Z,14.20
2023-08-29T21:51:58.461Z,15.90
2023-08-29T21:54:54.499Z,14.20
2023-08-29T21:57:50.464Z,13.70
2023-08-29T22:00:48.484Z,11.00
2023-08-29T22:03:44.488Z,13.60
2023-08-29T22:06:40.462Z,14.80
2023-08-29T22:09:36.479Z,13.60
2023-08-29T22:12:32.446Z,13.80
2023-08-29T22:15:28.491Z,12.60
2023-08-29T22:18:24.482Z,15.80
2023-08-29T22:21:16.485Z,13.40
2023-08-29T22:23:51.563Z,10.60
2023-08-29T22:26:40.483Z,14.10
2023-08-29T22:29:16.533Z,14.50
2023-08-29T22:32:05.455Z,13.10
2023-08-29T22:34:41.542Z,14.20
2023-08-29T22:37:23.860Z,14.20
2023-08-29T22:40:05.683Z,14.40
2023-08-29T22:42:41.893Z,12.60
2023-08-29T22:45:18.014Z,13.80
2023-08-29T22:47:59.498Z,10.70
2023-08-29T22:50:48.466Z,14.00
2023-08-29T22:53:37.484Z,14.00
2023-08-29T22:56:12.546Z,15.20
2023-08-29T22:59:01.461Z,13.70
2023-08-29T23:01:36.655Z,14.80
2023-08-29T23:04:25.484Z,15.00
2023-08-29T23:07:10.631Z,14.10
2023-08-29T23:09:59.619Z,15.90
2023-08-29T23:12:34.563Z,14.70
2023-08-29T23:15:23.504Z,12.10
2023-08-29T23:17:58.862Z,15.40
2023-08-29T23:20:47.468Z,14.50
2023-08-29T23:23:22.586Z,13.00
2023-08-29T23:26:12.476Z,13.40
2023-08-29T23:28:47.554Z,13.10
2023-08-29T23:31:36.589Z,13.30
2023-08-29T23:34:12.554Z,14.10
2023-08-29T23:37:02.643Z,11.90
2023-08-29T23:42:29.470Z,13.50
2023-08-29T23:45:06.870Z,13.40
2023-08-29T23:47:55.547Z,14.50
2023-08-29T23:50:30.520Z,13.80
2023-08-29T23:53:19.518Z,13.00
2023-08-29T23:55:54.528Z,11.70
2023-08-29T23:58:43.700Z,12.20
